sensor_id;sensor_type;location;lat;lon;timestamp;P1;durP1;ratioP1;P2;durP2;ratioP2
1446;SDS011;717;51.522;7.266;2022-07-06T00:02:04;2.10;;;1.17;;
1446;SDS011;717;51.522;7.266;2022-07-06T00:04:31;3.55;;;1.30;;
1446;SDS011;717;51.522;7.266;2022-07-06T00:06:57;2.63;;;1.30;;
1446;SDS011;717;51.522;7.266;2022-07-06T00:09:24;2.10;;;1.00;;
1446;SDS011;717;51.522;7.266;2022-07-06T00:11:54;3.75;;;1.23;;
1446;SDS011;717;51.522;7.266;2022-07-06T00:14:21;1.80;;;1.00;;
1446;SDS011;717;51.522;7.266;2022-07-06T00:16:49;3.25;;;1.40;;
1446;SDS011;717;51.522;7.266;2022-07-06T00:19:16;2.83;;;1.58;;
1446;SDS011;717;51.522;7.266;2022-07-06T00:21:43;2.05;;;1.10;;
1446;SDS011;717;51.522;7.266;2022-07-06T00:24:09;2.15;;;1.10;;
1446;SDS011;717;51.522;7.266;2022-07-06T00:26:36;2.92;;;1.38;;
1446;SDS011;717;51.522;7.266;2022-07-06T00:29:03;2.42;;;1.10;;
1446;SDS011;717;51.522;7.266;2022-07-06T00:31:29;2.55;;;1.10;;
1446;SDS011;717;51.522;7.266;2022-07-06T00:33:58;1.98;;;1.15;;
1446;SDS011;717;51.522;7.266;2022-07-06T00:36:24;2.38;;;1.40;;
1446;SDS011;717;51.522;7.266;2022-07-06T00:38:52;2.97;;;1.13;;
1446;SDS011;717;51.522;7.266;2022-07-06T00:41:18;3.42;;;1.13;;
1446;SDS011;717;51.522;7.266;2022-07-06T00:43:46;3.28;;;1.15;;
1446;SDS011;717;51.522;7.266;2022-07-06T00:46:14;2.80;;;1.30;;
1446;SDS011;717;51.522;7.266;2022-07-06T00:48:40;2.80;;;1.08;;
1446;SDS011;717;51.522;7.266;2022-07-06T00:51:08;1.40;;;1.10;;
1446;SDS011;717;51.522;7.266;2022-07-06T00:53:36;1.38;;;0.95;;
1446;SDS011;717;51.522;7.266;2022-07-06T00:56:03;2.53;;;1.00;;
1446;SDS011;717;51.522;7.266;2022-07-06T00:58:30;4.18;;;1.30;;
1446;SDS011;717;51.522;7.266;2022-07-06T01:00:57;2.78;;;1.40;;
1446;SDS011;717;51.522;7.266;2022-07-06T01:03:24;1.75;;;1.02;;
1446;SDS011;717;51.522;7.266;2022-07-06T01:05:51;2.03;;;1.13;;
1446;SDS011;717;51.522;7.266;2022-07-06T01:08:19;2.67;;;1.17;;
1446;SDS011;717;51.522;7.266;2022-07-06T01:10:46;1.40;;;1.10;;
1446;SDS011;717;51.522;7.266;2022-07-06T01:13:13;2.25;;;1.20;;
1446;SDS011;717;51.522;7.266;2022-07-06T01:15:39;4.05;;;0.90;;
1446;SDS011;717;51.522;7.266;2022-07-06T01:18:06;1.73;;;1.00;;
1446;SDS011;717;51.522;7.266;2022-07-06T01:20:37;2.30;;;1.00;;
1446;SDS011;717;51.522;7.266;2022-07-06T01:23:04;2.35;;;0.80;;
1446;SDS011;717;51.522;7.266;2022-07-06T01:25:30;2.03;;;0.80;;
1446;SDS011;717;51.522;7.266;2022-07-06T01:27:57;3.10;;;1.40;;
1446;SDS011;717;51.522;7.266;2022-07-06T01:30:24;2.50;;;0.85;;
1446;SDS011;717;51.522;7.266;2022-07-06T01:32:51;2.88;;;1.10;;
1446;SDS011;717;51.522;7.266;2022-07-06T01:35:17;2.90;;;0.80;;
1446;SDS011;717;51.522;7.266;2022-07-06T01:37:46;1.52;;;0.90;;
1446;SDS011;717;51.522;7.266;2022-07-06T01:40:12;3.38;;;1.00;;
1446;SDS011;717;51.522;7.266;2022-07-06T01:42:39;2.33;;;1.00;;
1446;SDS011;717;51.522;7.266;2022-07-06T01:45:06;2.55;;;1.10;;
1446;SDS011;717;51.522;7.266;2022-07-06T01:47:34;3.80;;;0.90;;
1446;SDS011;717;51.522;7.266;2022-07-06T01:50:03;2.03;;;1.00;;
1446;SDS011;717;51.522;7.266;2022-07-06T01:52:31;1.42;;;0.80;;
1446;SDS011;717;51.522;7.266;2022-07-06T01:54:59;5.38;;;1.00;;
1446;SDS011;717;51.522;7.266;2022-07-06T01:57:26;1.70;;;1.02;;
1446;SDS011;717;51.522;7.266;2022-07-06T01:59:52;1.75;;;0.90;;
1446;SDS011;717;51.522;7.266;2022-07-06T02:02:19;2.00;;;0.90;;
1446;SDS011;717;51.522;7.266;2022-07-06T02:04:46;2.50;;;1.02;;
1446;SDS011;717;51.522;7.266;2022-07-06T02:07:12;1.50;;;0.85;;
1446;SDS011;717;51.522;7.266;2022-07-06T02:09:39;2.00;;;0.80;;
1446;SDS011;717;51.522;7.266;2022-07-06T02:12:07;1.83;;;0.70;;
1446;SDS011;717;51.522;7.266;2022-07-06T02:14:34;3.05;;;1.00;;
1446;SDS011;717;51.522;7.266;2022-07-06T02:17:00;1.52;;;0.95;;
1446;SDS011;717;51.522;7.266;2022-07-06T02:19:27;2.47;;;1.10;;
1446;SDS011;717;51.522;7.266;2022-07-06T02:21:54;2.50;;;1.33;;
1446;SDS011;717;51.522;7.266;2022-07-06T02:24:20;3.40;;;1.00;;
1446;SDS011;717;51.522;7.266;2022-07-06T02:26:47;2.33;;;1.17;;
1446;SDS011;717;51.522;7.266;2022-07-06T02:29:15;2.40;;;0.95;;
1446;SDS011;717;51.522;7.266;2022-07-06T02:31:42;3.35;;;1.35;;
1446;SDS011;717;51.522;7.266;2022-07-06T02:34:09;2.80;;;1.33;;
1446;SDS011;717;51.522;7.266;2022-07-06T02:36:36;2.45;;;1.27;;
1446;SDS011;717;51.522;7.266;2022-07-06T02:39:03;3.83;;;1.33;;
1446;SDS011;717;51.522;7.266;2022-07-06T02:41:29;1.85;;;1.35;;
1446;SDS011;717;51.522;7.266;2022-07-06T02:43:56;2.67;;;1.50;;
1446;SDS011;717;51.522;7.266;2022-07-06T02:46:24;2.38;;;1.70;;
1446;SDS011;717;51.522;7.266;2022-07-06T02:48:51;3.78;;;1.60;;
1446;SDS011;717;51.522;7.266;2022-07-06T02:51:18;2.55;;;1.58;;
1446;SDS011;717;51.522;7.266;2022-07-06T02:53:45;1.60;;;1.50;;
1446;SDS011;717;51.522;7.266;2022-07-06T02:56:11;3.15;;;1.55;;
1446;SDS011;717;51.522;7.266;2022-07-06T02:58:38;3.92;;;1.55;;
1446;SDS011;717;51.522;7.266;2022-07-06T03:01:05;2.15;;;1.33;;
1446;SDS011;717;51.522;7.266;2022-07-06T03:03:35;2.47;;;1.38;;
1446;SDS011;717;51.522;7.266;2022-07-06T03:06:02;1.67;;;1.30;;
1446;SDS011;717;51.522;7.266;2022-07-06T03:08:29;2.25;;;1.33;;
1446;SDS011;717;51.522;7.266;2022-07-06T03:10:56;5.03;;;1.40;;
1446;SDS011;717;51.522;7.266;2022-07-06T03:13:23;3.05;;;1.38;;
1446;SDS011;717;51.522;7.266;2022-07-06T03:15:49;2.08;;;1.20;;
1446;SDS011;717;51.522;7.266;2022-07-06T03:18:16;2.40;;;1.40;;
1446;SDS011;717;51.522;7.266;2022-07-06T03:20:44;2.42;;;1.50;;
1446;SDS011;717;51.522;7.266;2022-07-06T03:23:10;2.70;;;1.40;;
1446;SDS011;717;51.522;7.266;2022-07-06T03:25:37;4.97;;;1.55;;
1446;SDS011;717;51.522;7.266;2022-07-06T03:28:04;3.95;;;1.60;;
1446;SDS011;717;51.522;7.266;2022-07-06T03:30:30;5.43;;;2.30;;
1446;SDS011;717;51.522;7.266;2022-07-06T03:32:57;4.47;;;2.30;;
1446;SDS011;717;51.522;7.266;2022-07-06T03:35:24;2.85;;;2.20;;
1446;SDS011;717;51.522;7.266;2022-07-06T03:37:52;2.28;;;2.00;;
1446;SDS011;717;51.522;7.266;2022-07-06T03:40:19;2.25;;;1.60;;
1446;SDS011;717;51.522;7.266;2022-07-06T03:42:46;2.58;;;1.88;;
1446;SDS011;717;51.522;7.266;2022-07-06T03:45:12;2.35;;;1.50;;
1446;SDS011;717;51.522;7.266;2022-07-06T03:47:39;1.95;;;1.52;;
1446;SDS011;717;51.522;7.266;2022-07-06T03:50:07;3.80;;;2.05;;
1446;SDS011;717;51.522;7.266;2022-07-06T03:52:34;3.63;;;2.30;;
1446;SDS011;717;51.522;7.266;2022-07-06T03:55:06;4.93;;;1.90;;
1446;SDS011;717;51.522;7.266;2022-07-06T03:57:34;4.40;;;2.30;;
1446;SDS011;717;51.522;7.266;2022-07-06T04:00:00;4.00;;;2.20;;
1446;SDS011;717;51.522;7.266;2022-07-06T04:02:27;2.25;;;1.70;;
1446;SDS011;717;51.522;7.266;2022-07-06T04:04:54;4.20;;;1.58;;
1446;SDS011;717;51.522;7.266;2022-07-06T04:07:20;3.85;;;1.90;;
1446;SDS011;717;51.522;7.266;2022-07-06T04:09:47;2.92;;;1.80;;
1446;SDS011;717;51.522;7.266;2022-07-06T04:12:15;1.73;;;1.30;;
1446;SDS011;717;51.522;7.266;2022-07-06T04:14:41;2.05;;;1.38;;
1446;SDS011;717;51.522;7.266;2022-07-06T04:17:08;2.13;;;1.70;;
1446;SDS011;717;51.522;7.266;2022-07-06T04:19:49;3.22;;;1.48;;
1446;SDS011;717;51.522;7.266;2022-07-06T04:22:16;2.65;;;1.42;;
1446;SDS011;717;51.522;7.266;2022-07-06T04:24:43;5.32;;;2.17;;
1446;SDS011;717;51.522;7.266;2022-07-06T04:27:10;3.78;;;1.98;;
1446;SDS011;717;51.522;7.266;2022-07-06T04:29:38;5.22;;;1.75;;
1446;SDS011;717;51.522;7.266;2022-07-06T04:32:05;3.15;;;1.60;;
1446;SDS011;717;51.522;7.266;2022-07-06T04:34:32;3.80;;;1.88;;
1446;SDS011;717;51.522;7.266;2022-07-06T04:36:59;3.22;;;1.48;;
1446;SDS011;717;51.522;7.266;2022-07-06T04:39:25;2.83;;;1.75;;
1446;SDS011;717;51.522;7.266;2022-07-06T04:41:52;3.92;;;1.55;;
1446;SDS011;717;51.522;7.266;2022-07-06T04:44:21;3.65;;;1.80;;
1446;SDS011;717;51.522;7.266;2022-07-06T04:46:49;2.80;;;1.67;;
1446;SDS011;717;51.522;7.266;2022-07-06T04:49:16;3.63;;;1.60;;
1446;SDS011;717;51.522;7.266;2022-07-06T04:51:42;4.07;;;2.00;;
1446;SDS011;717;51.522;7.266;2022-07-06T04:54:09;5.55;;;2.60;;
1446;SDS011;717;51.522;7.266;2022-07-06T04:56:36;4.95;;;2.50;;
1446;SDS011;717;51.522;7.266;2022-07-06T04:59:03;4.95;;;2.60;;
1446;SDS011;717;51.522;7.266;2022-07-06T05:01:30;4.07;;;2.40;;
1446;SDS011;717;51.522;7.266;2022-07-06T05:03:58;4.70;;;2.63;;
1446;SDS011;717;51.522;7.266;2022-07-06T05:06:25;6.95;;;2.42;;
1446;SDS011;717;51.522;7.266;2022-07-06T05:08:52;4.95;;;1.85;;
1446;SDS011;717;51.522;7.266;2022-07-06T05:11:18;3.78;;;1.83;;
1446;SDS011;717;51.522;7.266;2022-07-06T05:13:45;3.95;;;1.88;;
1446;SDS011;717;51.522;7.266;2022-07-06T05:16:11;4.90;;;2.22;;
1446;SDS011;717;51.522;7.266;2022-07-06T05:18:38;4.35;;;1.70;;
1446;SDS011;717;51.522;7.266;2022-07-06T05:21:06;5.45;;;1.83;;
1446;SDS011;717;51.522;7.266;2022-07-06T05:23:33;3.72;;;1.73;;
1446;SDS011;717;51.522;7.266;2022-07-06T05:25:59;3.67;;;1.90;;
1446;SDS011;717;51.522;7.266;2022-07-06T05:28:26;5.10;;;1.50;;
1446;SDS011;717;51.522;7.266;2022-07-06T05:30:53;5.15;;;1.50;;
1446;SDS011;717;51.522;7.266;2022-07-06T05:33:19;2.90;;;1.63;;
1446;SDS011;717;51.522;7.266;2022-07-06T05:35:46;3.03;;;1.60;;
1446;SDS011;717;51.522;7.266;2022-07-06T05:38:14;5.57;;;1.73;;
1446;SDS011;717;51.522;7.266;2022-07-06T05:40:41;4.22;;;1.50;;
1446;SDS011;717;51.522;7.266;2022-07-06T05:43:07;3.03;;;1.27;;
1446;SDS011;717;51.522;7.266;2022-07-06T05:45:34;3.88;;;1.60;;
1446;SDS011;717;51.522;7.266;2022-07-06T05:48:01;3.47;;;1.30;;
1446;SDS011;717;51.522;7.266;2022-07-06T05:50:45;2.85;;;1.42;;
1446;SDS011;717;51.522;7.266;2022-07-06T05:53:12;5.18;;;1.40;;
1446;SDS011;717;51.522;7.266;2022-07-06T05:55:40;6.97;;;1.77;;
1446;SDS011;717;51.522;7.266;2022-07-06T05:58:07;3.05;;;1.33;;
1446;SDS011;717;51.522;7.266;2022-07-06T06:00:33;3.38;;;1.23;;
1446;SDS011;717;51.522;7.266;2022-07-06T06:03:00;3.38;;;1.40;;
1446;SDS011;717;51.522;7.266;2022-07-06T06:05:27;3.50;;;1.48;;
1446;SDS011;717;51.522;7.266;2022-07-06T06:07:54;3.75;;;1.42;;
1446;SDS011;717;51.522;7.266;2022-07-06T06:10:20;4.13;;;1.35;;
1446;SDS011;717;51.522;7.266;2022-07-06T06:12:49;3.72;;;1.20;;
1446;SDS011;717;51.522;7.266;2022-07-06T06:15:16;6.55;;;1.58;;
1446;SDS011;717;51.522;7.266;2022-07-06T06:17:43;4.78;;;1.33;;
1446;SDS011;717;51.522;7.266;2022-07-06T06:20:12;7.00;;;1.25;;
1446;SDS011;717;51.522;7.266;2022-07-06T06:22:46;4.60;;;0.90;;
1446;SDS011;717;51.522;7.266;2022-07-06T06:25:14;2.75;;;0.73;;
1446;SDS011;717;51.522;7.266;2022-07-06T06:27:41;2.03;;;0.60;;
1446;SDS011;717;51.522;7.266;2022-07-06T06:30:10;4.75;;;0.68;;
1446;SDS011;717;51.522;7.266;2022-07-06T06:32:37;2.90;;;0.95;;
1446;SDS011;717;51.522;7.266;2022-07-06T06:35:04;3.05;;;0.77;;
1446;SDS011;717;51.522;7.266;2022-07-06T06:37:32;4.07;;;0.65;;
1446;SDS011;717;51.522;7.266;2022-07-06T06:40:00;2.63;;;0.90;;
1446;SDS011;717;51.522;7.266;2022-07-06T06:42:26;4.80;;;0.80;;
1446;SDS011;717;51.522;7.266;2022-07-06T06:44:53;3.33;;;0.68;;
1446;SDS011;717;51.522;7.266;2022-07-06T06:47:21;2.53;;;0.90;;
1446;SDS011;717;51.522;7.266;2022-07-06T06:49:48;3.15;;;0.98;;
1446;SDS011;717;51.522;7.266;2022-07-06T06:52:14;2.22;;;0.52;;
1446;SDS011;717;51.522;7.266;2022-07-06T06:54:41;3.95;;;0.98;;
1446;SDS011;717;51.522;7.266;2022-07-06T06:57:08;1.75;;;0.77;;
1446;SDS011;717;51.522;7.266;2022-07-06T06:59:34;2.83;;;0.70;;
1446;SDS011;717;51.522;7.266;2022-07-06T07:02:01;4.30;;;0.88;;
1446;SDS011;717;51.522;7.266;2022-07-06T07:04:29;2.53;;;0.70;;
1446;SDS011;717;51.522;7.266;2022-07-06T07:06:56;3.33;;;0.63;;
1446;SDS011;717;51.522;7.266;2022-07-06T07:09:24;4.18;;;0.90;;
1446;SDS011;717;51.522;7.266;2022-07-06T07:11:50;3.30;;;0.70;;
1446;SDS011;717;51.522;7.266;2022-07-06T07:14:17;1.63;;;0.63;;
1446;SDS011;717;51.522;7.266;2022-07-06T07:16:44;2.33;;;0.70;;
1446;SDS011;717;51.522;7.266;2022-07-06T07:19:10;5.60;;;0.93;;
1446;SDS011;717;51.522;7.266;2022-07-06T07:21:38;3.15;;;0.80;;
1446;SDS011;717;51.522;7.266;2022-07-06T07:24:05;2.10;;;0.60;;
1446;SDS011;717;51.522;7.266;2022-07-06T07:26:33;2.22;;;0.95;;
1446;SDS011;717;51.522;7.266;2022-07-06T07:29:00;1.33;;;0.50;;
1446;SDS011;717;51.522;7.266;2022-07-06T07:31:26;1.75;;;0.82;;
1446;SDS011;717;51.522;7.266;2022-07-06T07:33:53;2.55;;;0.43;;
1446;SDS011;717;51.522;7.266;2022-07-06T07:36:22;1.35;;;0.38;;
1446;SDS011;717;51.522;7.266;2022-07-06T07:38:50;1.83;;;0.52;;
1446;SDS011;717;51.522;7.266;2022-07-06T07:41:16;5.10;;;0.63;;
1446;SDS011;717;51.522;7.266;2022-07-06T07:43:43;3.25;;;0.60;;
1446;SDS011;717;51.522;7.266;2022-07-06T07:46:10;1.10;;;0.40;;
1446;SDS011;717;51.522;7.266;2022-07-06T07:48:36;2.08;;;0.28;;
1446;SDS011;717;51.522;7.266;2022-07-06T07:51:03;1.60;;;0.40;;
1446;SDS011;717;51.522;7.266;2022-07-06T07:53:30;2.72;;;0.38;;
1446;SDS011;717;51.522;7.266;2022-07-06T07:55:58;3.08;;;0.70;;
1446;SDS011;717;51.522;7.266;2022-07-06T07:58:24;2.67;;;0.40;;
1446;SDS011;717;51.522;7.266;2022-07-06T08:00:52;1.08;;;0.30;;
1446;SDS011;717;51.522;7.266;2022-07-06T08:03:18;1.95;;;0.57;;
1446;SDS011;717;51.522;7.266;2022-07-06T08:05:45;2.30;;;0.50;;
1446;SDS011;717;51.522;7.266;2022-07-06T08:08:12;2.60;;;0.40;;
1446;SDS011;717;51.522;7.266;2022-07-06T08:10:39;2.90;;;0.70;;
1446;SDS011;717;51.522;7.266;2022-07-06T08:13:07;1.50;;;0.50;;
1446;SDS011;717;51.522;7.266;2022-07-06T08:15:35;2.15;;;0.57;;
1446;SDS011;717;51.522;7.266;2022-07-06T08:18:02;2.00;;;0.57;;
1446;SDS011;717;51.522;7.266;2022-07-06T08:20:29;1.20;;;0.40;;
1446;SDS011;717;51.522;7.266;2022-07-06T08:22:55;2.45;;;0.70;;
1446;SDS011;717;51.522;7.266;2022-07-06T08:25:22;1.77;;;0.40;;
1446;SDS011;717;51.522;7.266;2022-07-06T08:27:49;2.00;;;0.90;;
1446;SDS011;717;51.522;7.266;2022-07-06T08:30:17;2.47;;;0.43;;
1446;SDS011;717;51.522;7.266;2022-07-06T08:32:43;1.25;;;0.52;;
1446;SDS011;717;51.522;7.266;2022-07-06T08:35:10;3.28;;;0.43;;
1446;SDS011;717;51.522;7.266;2022-07-06T08:37:37;2.17;;;0.50;;
1446;SDS011;717;51.522;7.266;2022-07-06T08:40:04;2.30;;;0.63;;
1446;SDS011;717;51.522;7.266;2022-07-06T08:42:33;2.05;;;0.60;;
1446;SDS011;717;51.522;7.266;2022-07-06T08:45:01;1.20;;;0.50;;
1446;SDS011;717;51.522;7.266;2022-07-06T08:47:32;1.67;;;0.52;;
1446;SDS011;717;51.522;7.266;2022-07-06T08:50:01;2.08;;;0.50;;
1446;SDS011;717;51.522;7.266;2022-07-06T08:52:28;1.15;;;0.30;;
1446;SDS011;717;51.522;7.266;2022-07-06T08:54:56;2.03;;;0.47;;
1446;SDS011;717;51.522;7.266;2022-07-06T08:57:23;2.78;;;0.70;;
1446;SDS011;717;51.522;7.266;2022-07-06T08:59:51;2.10;;;0.28;;
1446;SDS011;717;51.522;7.266;2022-07-06T09:02:18;2.25;;;0.65;;
1446;SDS011;717;51.522;7.266;2022-07-06T09:04:47;2.40;;;0.50;;
1446;SDS011;717;51.522;7.266;2022-07-06T09:07:16;1.88;;;0.60;;
1446;SDS011;717;51.522;7.266;2022-07-06T09:09:44;1.52;;;0.50;;
1446;SDS011;717;51.522;7.266;2022-07-06T09:12:11;1.10;;;0.30;;
1446;SDS011;717;51.522;7.266;2022-07-06T09:14:39;0.75;;;0.30;;
1446;SDS011;717;51.522;7.266;2022-07-06T09:17:06;2.40;;;0.60;;
1446;SDS011;717;51.522;7.266;2022-07-06T09:19:34;1.15;;;0.30;;
1446;SDS011;717;51.522;7.266;2022-07-06T09:22:03;1.73;;;0.20;;
1446;SDS011;717;51.522;7.266;2022-07-06T09:24:30;1.40;;;0.45;;
1446;SDS011;717;51.522;7.266;2022-07-06T09:26:58;0.95;;;0.30;;
1446;SDS011;717;51.522;7.266;2022-07-06T09:29:26;4.72;;;0.55;;
1446;SDS011;717;51.522;7.266;2022-07-06T09:31:57;2.00;;;0.55;;
1446;SDS011;717;51.522;7.266;2022-07-06T09:34:25;1.85;;;0.38;;
1446;SDS011;717;51.522;7.266;2022-07-06T09:37:06;1.08;;;0.40;;
1446;SDS011;717;51.522;7.266;2022-07-06T09:39:33;0.60;;;0.35;;
1446;SDS011;717;51.522;7.266;2022-07-06T09:42:00;2.63;;;0.47;;
1446;SDS011;717;51.522;7.266;2022-07-06T09:44:29;1.40;;;0.40;;
1446;SDS011;717;51.522;7.266;2022-07-06T09:46:58;2.35;;;0.32;;
1446;SDS011;717;51.522;7.266;2022-07-06T09:49:25;0.90;;;0.30;;
1446;SDS011;717;51.522;7.266;2022-07-06T09:51:54;2.13;;;0.50;;
1446;SDS011;717;51.522;7.266;2022-07-06T09:54:23;1.45;;;0.40;;
1446;SDS011;717;51.522;7.266;2022-07-06T09:56:51;2.88;;;0.47;;
1446;SDS011;717;51.522;7.266;2022-07-06T09:59:19;1.95;;;0.50;;
1446;SDS011;717;51.522;7.266;2022-07-06T10:01:47;3.28;;;0.70;;
1446;SDS011;717;51.522;7.266;2022-07-06T10:04:18;2.63;;;0.40;;
1446;SDS011;717;51.522;7.266;2022-07-06T10:06:45;2.65;;;0.50;;
1446;SDS011;717;51.522;7.266;2022-07-06T10:09:12;1.42;;;0.40;;
1446;SDS011;717;51.522;7.266;2022-07-06T10:11:42;1.88;;;0.47;;
1446;SDS011;717;51.522;7.266;2022-07-06T10:14:12;1.73;;;0.40;;
1446;SDS011;717;51.522;7.266;2022-07-06T10:16:41;1.20;;;0.60;;
1446;SDS011;717;51.522;7.266;2022-07-06T10:19:08;2.63;;;0.60;;
1446;SDS011;717;51.522;7.266;2022-07-06T10:21:35;2.20;;;0.45;;
1446;SDS011;717;51.522;7.266;2022-07-06T10:24:03;1.45;;;0.55;;
1446;SDS011;717;51.522;7.266;2022-07-06T10:26:31;2.15;;;0.55;;
1446;SDS011;717;51.522;7.266;2022-07-06T10:29:00;3.03;;;0.43;;
1446;SDS011;717;51.522;7.266;2022-07-06T10:31:28;3.38;;;0.57;;
1446;SDS011;717;51.522;7.266;2022-07-06T10:33:56;1.95;;;0.63;;
1446;SDS011;717;51.522;7.266;2022-07-06T10:36:25;1.63;;;0.50;;
1446;SDS011;717;51.522;7.266;2022-07-06T10:38:53;2.42;;;0.60;;
1446;SDS011;717;51.522;7.266;2022-07-06T10:41:29;3.53;;;0.80;;
1446;SDS011;717;51.522;7.266;2022-07-06T10:43:55;1.95;;;0.60;;
1446;SDS011;717;51.522;7.266;2022-07-06T10:46:27;1.83;;;0.57;;
1446;SDS011;717;51.522;7.266;2022-07-06T10:48:54;2.97;;;0.70;;
1446;SDS011;717;51.522;7.266;2022-07-06T10:51:23;2.63;;;0.60;;
1446;SDS011;717;51.522;7.266;2022-07-06T10:53:55;1.85;;;0.55;;
1446;SDS011;717;51.522;7.266;2022-07-06T10:56:31;1.38;;;0.40;;
1446;SDS011;717;51.522;7.266;2022-07-06T10:59:01;2.88;;;0.60;;
1446;SDS011;717;51.522;7.266;2022-07-06T11:01:30;2.63;;;0.63;;
1446;SDS011;717;51.522;7.266;2022-07-06T11:04:06;4.20;;;0.65;;
1446;SDS011;717;51.522;7.266;2022-07-06T11:06:35;3.17;;;0.40;;
1446;SDS011;717;51.522;7.266;2022-07-06T11:09:03;2.92;;;0.60;;
1446;SDS011;717;51.522;7.266;2022-07-06T11:11:38;3.70;;;0.60;;
1446;SDS011;717;51.522;7.266;2022-07-06T11:14:07;1.20;;;0.50;;
1446;SDS011;717;51.522;7.266;2022-07-06T11:16:38;1.92;;;0.40;;
1446;SDS011;717;51.522;7.266;2022-07-06T11:19:06;1.08;;;0.35;;
1446;SDS011;717;51.522;7.266;2022-07-06T11:21:36;2.20;;;0.68;;
1446;SDS011;717;51.522;7.266;2022-07-06T11:24:05;3.13;;;1.05;;
1446;SDS011;717;51.522;7.266;2022-07-06T11:26:33;3.92;;;0.93;;
1446;SDS011;717;51.522;7.266;2022-07-06T11:29:02;1.70;;;0.50;;
1446;SDS011;717;51.522;7.266;2022-07-06T11:31:29;1.85;;;0.65;;
1446;SDS011;717;51.522;7.266;2022-07-06T11:33:57;2.95;;;0.45;;
1446;SDS011;717;51.522;7.266;2022-07-06T11:36:24;2.78;;;0.63;;
1446;SDS011;717;51.522;7.266;2022-07-06T11:38:51;2.65;;;0.60;;
1446;SDS011;717;51.522;7.266;2022-07-06T11:41:17;1.67;;;0.45;;
1446;SDS011;717;51.522;7.266;2022-07-06T11:43:45;2.33;;;0.55;;
1446;SDS011;717;51.522;7.266;2022-07-06T11:46:25;1.10;;;0.50;;
1446;SDS011;717;51.522;7.266;2022-07-06T11:48:53;0.90;;;0.30;;
1446;SDS011;717;51.522;7.266;2022-07-06T11:51:23;3.65;;;0.55;;
1446;SDS011;717;51.522;7.266;2022-07-06T11:53:51;2.63;;;0.40;;
1446;SDS011;717;51.522;7.266;2022-07-06T11:56:19;4.30;;;0.50;;
1446;SDS011;717;51.522;7.266;2022-07-06T11:58:47;1.42;;;0.40;;
1446;SDS011;717;51.522;7.266;2022-07-06T12:01:15;1.92;;;0.30;;
1446;SDS011;717;51.522;7.266;2022-07-06T12:03:42;2.13;;;0.50;;
1446;SDS011;717;51.522;7.266;2022-07-06T12:06:14;2.72;;;0.52;;
1446;SDS011;717;51.522;7.266;2022-07-06T12:08:44;3.47;;;0.40;;
1446;SDS011;717;51.522;7.266;2022-07-06T12:11:21;2.03;;;0.47;;
1446;SDS011;717;51.522;7.266;2022-07-06T12:13:49;1.75;;;0.30;;
1446;SDS011;717;51.522;7.266;2022-07-06T12:16:17;2.70;;;0.30;;
1446;SDS011;717;51.522;7.266;2022-07-06T12:18:45;3.70;;;0.38;;
1446;SDS011;717;51.522;7.266;2022-07-06T12:21:14;3.92;;;0.50;;
1446;SDS011;717;51.522;7.266;2022-07-06T12:23:45;2.15;;;0.63;;
1446;SDS011;717;51.522;7.266;2022-07-06T12:26:13;1.17;;;0.50;;
1446;SDS011;717;51.522;7.266;2022-07-06T12:28:41;3.17;;;0.50;;
1446;SDS011;717;51.522;7.266;2022-07-06T12:31:08;2.88;;;0.43;;
1446;SDS011;717;51.522;7.266;2022-07-06T12:33:35;2.25;;;0.38;;
1446;SDS011;717;51.522;7.266;2022-07-06T12:36:09;3.40;;;0.38;;
1446;SDS011;717;51.522;7.266;2022-07-06T12:38:43;1.08;;;0.30;;
1446;SDS011;717;51.522;7.266;2022-07-06T12:41:26;1.13;;;0.40;;
1446;SDS011;717;51.522;7.266;2022-07-06T12:43:59;3.00;;;0.28;;
1446;SDS011;717;51.522;7.266;2022-07-06T12:46:29;0.45;;;0.13;;
1446;SDS011;717;51.522;7.266;2022-07-06T12:48:57;1.95;;;0.30;;
1446;SDS011;717;51.522;7.266;2022-07-06T12:51:24;2.83;;;0.40;;
1446;SDS011;717;51.522;7.266;2022-07-06T12:53:56;1.33;;;0.40;;
1446;SDS011;717;51.522;7.266;2022-07-06T12:59:26;3.22;;;0.47;;
1446;SDS011;717;51.522;7.266;2022-07-06T13:01:53;2.15;;;0.32;;
1446;SDS011;717;51.522;7.266;2022-07-06T13:04:22;2.00;;;0.43;;
1446;SDS011;717;51.522;7.266;2022-07-06T13:06:49;2.15;;;0.40;;
1446;SDS011;717;51.522;7.266;2022-07-06T13:09:17;1.75;;;0.60;;
1446;SDS011;717;51.522;7.266;2022-07-06T13:11:44;2.47;;;0.57;;
1446;SDS011;717;51.522;7.266;2022-07-06T13:14:12;3.13;;;0.65;;
1446;SDS011;717;51.522;7.266;2022-07-06T13:16:39;1.33;;;0.43;;
1446;SDS011;717;51.522;7.266;2022-07-06T13:19:06;0.73;;;0.40;;
1446;SDS011;717;51.522;7.266;2022-07-06T13:21:32;3.00;;;0.57;;
1446;SDS011;717;51.522;7.266;2022-07-06T13:23:59;1.08;;;0.30;;
1446;SDS011;717;51.522;7.266;2022-07-06T13:26:27;3.20;;;0.57;;
1446;SDS011;717;51.522;7.266;2022-07-06T13:28:54;4.18;;;0.47;;
1446;SDS011;717;51.522;7.266;2022-07-06T13:31:22;1.30;;;0.38;;
1446;SDS011;717;51.522;7.266;2022-07-06T13:33:48;2.15;;;0.50;;
1446;SDS011;717;51.522;7.266;2022-07-06T13:36:15;1.50;;;0.50;;
1446;SDS011;717;51.522;7.266;2022-07-06T13:38:42;2.13;;;0.68;;
1446;SDS011;717;51.522;7.266;2022-07-06T13:41:08;1.58;;;0.43;;
1446;SDS011;717;51.522;7.266;2022-07-06T13:43:36;1.15;;;0.40;;
1446;SDS011;717;51.522;7.266;2022-07-06T13:46:03;1.88;;;0.30;;
1446;SDS011;717;51.522;7.266;2022-07-06T13:48:30;2.35;;;0.50;;
1446;SDS011;717;51.522;7.266;2022-07-06T13:50:58;2.90;;;0.70;;
1446;SDS011;717;51.522;7.266;2022-07-06T13:53:25;1.95;;;0.63;;
1446;SDS011;717;51.522;7.266;2022-07-06T13:55:52;1.58;;;0.47;;
1446;SDS011;717;51.522;7.266;2022-07-06T13:58:19;1.40;;;0.47;;
1446;SDS011;717;51.522;7.266;2022-07-06T14:00:47;1.77;;;0.70;;
1446;SDS011;717;51.522;7.266;2022-07-06T14:03:14;2.15;;;0.50;;
1446;SDS011;717;51.522;7.266;2022-07-06T14:05:41;1.45;;;0.57;;
1446;SDS011;717;51.522;7.266;2022-07-06T14:08:08;1.10;;;0.50;;
1446;SDS011;717;51.522;7.266;2022-07-06T14:10:34;2.55;;;0.50;;
1446;SDS011;717;51.522;7.266;2022-07-06T14:13:01;1.25;;;0.50;;
1446;SDS011;717;51.522;7.266;2022-07-06T14:15:28;1.80;;;0.45;;
1446;SDS011;717;51.522;7.266;2022-07-06T14:17:56;1.20;;;0.28;;
1446;SDS011;717;51.522;7.266;2022-07-06T14:20:23;1.48;;;0.20;;
1446;SDS011;717;51.522;7.266;2022-07-06T14:22:50;1.40;;;0.47;;
1446;SDS011;717;51.522;7.266;2022-07-06T14:25:17;1.40;;;0.40;;
1446;SDS011;717;51.522;7.266;2022-07-06T14:27:43;1.02;;;0.40;;
1446;SDS011;717;51.522;7.266;2022-07-06T14:30:11;2.20;;;0.32;;
1446;SDS011;717;51.522;7.266;2022-07-06T14:32:38;2.22;;;0.43;;
1446;SDS011;717;51.522;7.266;2022-07-06T14:35:06;3.60;;;0.60;;
1446;SDS011;717;51.522;7.266;2022-07-06T14:37:33;1.83;;;0.68;;
1446;SDS011;717;51.522;7.266;2022-07-06T14:40:00;1.20;;;0.50;;
1446;SDS011;717;51.522;7.266;2022-07-06T14:42:26;1.48;;;0.63;;
1446;SDS011;717;51.522;7.266;2022-07-06T14:44:53;1.42;;;0.40;;
1446;SDS011;717;51.522;7.266;2022-07-06T14:47:20;2.80;;;0.40;;
1446;SDS011;717;51.522;7.266;2022-07-06T14:49:47;1.17;;;0.30;;
1446;SDS011;717;51.522;7.266;2022-07-06T14:52:14;1.67;;;0.30;;
1446;SDS011;717;51.522;7.266;2022-07-06T14:54:41;2.10;;;0.32;;
1446;SDS011;717;51.522;7.266;2022-07-06T14:57:08;3.85;;;0.50;;
1446;SDS011;717;51.522;7.266;2022-07-06T14:59:34;1.83;;;0.45;;
1446;SDS011;717;51.522;7.266;2022-07-06T15:02:01;1.42;;;0.55;;
1446;SDS011;717;51.522;7.266;2022-07-06T15:04:28;1.83;;;0.43;;
1446;SDS011;717;51.522;7.266;2022-07-06T15:06:55;0.68;;;0.30;;
1446;SDS011;717;51.522;7.266;2022-07-06T15:09:23;1.63;;;0.30;;
1446;SDS011;717;51.522;7.266;2022-07-06T15:11:51;2.72;;;0.50;;
1446;SDS011;717;51.522;7.266;2022-07-06T15:14:19;3.88;;;0.50;;
1446;SDS011;717;51.522;7.266;2022-07-06T15:16:45;1.60;;;0.40;;
1446;SDS011;717;51.522;7.266;2022-07-06T15:19:13;1.48;;;0.50;;
1446;SDS011;717;51.522;7.266;2022-07-06T15:21:40;0.63;;;0.30;;
1446;SDS011;717;51.522;7.266;2022-07-06T15:24:06;1.80;;;0.68;;
1446;SDS011;717;51.522;7.266;2022-07-06T15:26:35;2.28;;;0.40;;
1446;SDS011;717;51.522;7.266;2022-07-06T15:29:02;1.98;;;0.20;;
1446;SDS011;717;51.522;7.266;2022-07-06T15:31:28;0.35;;;0.30;;
1446;SDS011;717;51.522;7.266;2022-07-06T15:33:56;3.28;;;0.30;;
1446;SDS011;717;51.522;7.266;2022-07-06T15:36:23;2.00;;;0.40;;